createdAt,value
2022-09-06T00:01:00.420Z,9.10
2022-09-06T00:03:30.148Z,9.10
2022-09-06T00:06:05.686Z,10.10
2022-09-06T00:11:01.358Z,10.10
2022-09-06T00:13:30.657Z,10.10
2022-09-06T00:16:04.054Z,9.60
2022-09-06T00:18:30.262Z,9.60
2022-09-06T00:21:00.310Z,9.60
2022-09-06T00:23:30.378Z,9.60
2022-09-06T00:26:02.926Z,12.10
2022-09-06T00:28:30.755Z,12.10
2022-09-06T00:31:07.532Z,12.10
2022-09-06T00:33:30.137Z,12.10
2022-09-06T00:36:00.725Z,12.50
2022-09-06T00:38:30.765Z,12.50
2022-09-06T00:41:00.843Z,12.50
2022-09-06T00:46:01.438Z,9.00
2022-09-06T00:48:30.424Z,9.00
2022-09-06T00:53:31.544Z,9.00
2022-09-06T00:56:01.025Z,9.50
2022-09-06T00:58:30.580Z,9.50
2022-09-06T01:03:30.615Z,9.50
2022-09-06T01:06:16.415Z,14.30
2022-09-06T01:08:40.735Z,14.30
2022-09-06T01:11:15.159Z,14.30
2022-09-06T01:13:43.269Z,14.30
2022-09-06T01:16:10.628Z,14.80
2022-09-06T01:18:44.750Z,14.80
2022-09-06T01:21:11.299Z,14.80
2022-09-06T01:23:49.961Z,14.80
2022-09-06T01:26:13.629Z,13.50
2022-09-06T01:28:34.519Z,13.50
2022-09-06T01:31:12.476Z,13.50
2022-09-06T01:33:38.567Z,13.50
2022-09-06T01:36:04.557Z,9.50
2022-09-06T01:38:30.469Z,9.50
2022-09-06T01:41:00.373Z,9.50
2022-09-06T01:43:34.011Z,9.50
2022-09-06T01:46:10.643Z,10.70
2022-09-06T01:48:45.910Z,10.70
2022-09-06T01:51:14.007Z,10.70
2022-09-06T01:53:44.131Z,10.70
2022-09-06T01:56:07.400Z,13.10
2022-09-06T01:58:49.130Z,13.10
2022-09-06T02:03:39.879Z,13.10
2022-09-06T02:06:06.812Z,9.80
2022-09-06T02:08:34.666Z,9.80
2022-09-06T02:11:03.869Z,9.80
2022-09-06T02:13:34.488Z,9.80
2022-09-06T02:16:03.420Z,10.60
2022-09-06T02:18:35.677Z,10.60
2022-09-06T02:23:33.932Z,10.60
2022-09-06T02:26:06.110Z,12.70
2022-09-06T02:28:30.854Z,12.70
2022-09-06T02:31:04.942Z,12.70
2022-09-06T02:33:31.800Z,12.70
2022-09-06T02:36:05.414Z,11.20
2022-09-06T02:38:33.285Z,11.20
2022-09-06T02:41:01.011Z,11.20
2022-09-06T02:43:30.432Z,11.20
2022-09-06T02:46:00.753Z,10.00
2022-09-06T02:48:30.504Z,10.00
2022-09-06T02:51:02.172Z,10.00
2022-09-06T02:56:00.899Z,12.40
2022-09-06T02:58:30.262Z,12.40
2022-09-06T03:01:00.352Z,12.40
2022-09-06T03:06:00.499Z,12.30
2022-09-06T03:13:30.584Z,12.30
2022-09-06T03:16:00.430Z,12.30
2022-09-06T03:18:31.337Z,12.30
2022-09-06T03:21:00.776Z,12.30
2022-09-06T03:26:00.732Z,11.50
2022-09-06T03:28:30.321Z,11.50
2022-09-06T03:31:00.310Z,11.50
2022-09-06T03:33:30.519Z,11.50
2022-09-06T03:36:02.104Z,14.00
2022-09-06T03:38:30.432Z,14.00
2022-09-06T03:41:00.412Z,14.00
2022-09-06T03:43:31.421Z,14.00
2022-09-06T03:46:01.499Z,10.70
2022-09-06T03:48:30.365Z,10.70
2022-09-06T03:53:30.662Z,10.70
2022-09-06T03:56:00.243Z,10.80
2022-09-06T03:58:32.230Z,10.80
2022-09-06T04:03:30.464Z,10.80
2022-09-06T04:06:01.333Z,10.10
2022-09-06T04:08:31.362Z,10.10
2022-09-06T04:11:00.453Z,10.10
2022-09-06T04:13:31.722Z,10.10
2022-09-06T04:16:00.839Z,14.60
2022-09-06T04:18:30.786Z,14.60
2022-09-06T04:21:00.286Z,14.60
2022-09-06T04:23:30.337Z,14.60
2022-09-06T04:26:00.617Z,15.20
2022-09-06T04:28:30.430Z,15.20
2022-09-06T04:31:04.909Z,15.20
2022-09-06T04:33:31.621Z,15.20
2022-09-06T04:36:02.677Z,13.40
2022-09-06T04:38:34.993Z,13.40
2022-09-06T04:41:00.320Z,13.40
2022-09-06T04:43:30.597Z,13.40
2022-09-06T04:46:03.598Z,12.80
2022-09-06T04:48:30.237Z,12.80
2022-09-06T04:51:00.434Z,12.80
2022-09-06T04:53:31.616Z,12.80
2022-09-06T04:56:00.474Z,11.70
2022-09-06T04:58:30.784Z,11.70
2022-09-06T05:01:00.492Z,11.70
2022-09-06T05:03:30.390Z,11.70
2022-09-06T05:06:04.931Z,13.90
2022-09-06T05:08:30.387Z,13.90
2022-09-06T05:11:00.474Z,13.90
2022-09-06T05:13:30.398Z,13.90
2022-09-06T05:16:01.061Z,14.10
2022-09-06T05:18:31.139Z,14.10
2022-09-06T05:23:30.503Z,14.10
2022-09-06T05:26:00.492Z,14.10
2022-09-06T05:31:08.928Z,14.10
2022-09-06T05:33:30.479Z,14.10
2022-09-06T05:36:00.809Z,16.60
2022-09-06T05:38:30.738Z,16.60
2022-09-06T05:41:00.332Z,16.60
2022-09-06T05:43:30.464Z,16.60
2022-09-06T05:46:00.647Z,14.20
2022-09-06T05:51:01.045Z,14.20
2022-09-06T05:53:32.783Z,14.20
2022-09-06T05:56:00.546Z,15.80
2022-09-06T05:58:30.862Z,15.80
2022-09-06T06:01:06.080Z,15.80
2022-09-06T06:06:00.494Z,14.70
2022-09-06T06:08:30.509Z,14.70
2022-09-06T06:11:01.510Z,14.70
2022-09-06T06:13:33.850Z,14.70
2022-09-06T06:18:30.346Z,13.90
2022-09-06T06:21:10.435Z,13.90
2022-09-06T06:23:30.312Z,13.90
2022-09-06T06:26:00.476Z,16.40
2022-09-06T06:28:31.291Z,16.40
2022-09-06T06:31:00.580Z,16.40
2022-09-06T06:33:31.526Z,16.40
2022-09-06T06:36:02.735Z,16.40
2022-09-06T06:38:31.331Z,16.40
2022-09-06T06:41:04.447Z,16.40
2022-09-06T06:43:35.477Z,16.40
2022-09-06T06:46:00.848Z,14.80
2022-09-06T06:48:30.406Z,14.80
2022-09-06T06:51:00.841Z,14.80
2022-09-06T06:53:31.763Z,14.80
2022-09-06T06:56:01.012Z,14.70
2022-09-06T06:58:30.477Z,14.70
2022-09-06T07:01:00.734Z,14.70
2022-09-06T07:03:30.338Z,14.70
2022-09-06T07:08:31.046Z,15.00
2022-09-06T07:11:01.206Z,15.00
2022-09-06T07:13:32.866Z,15.00
2022-09-06T07:16:07.313Z,16.30
2022-09-06T07:18:30.359Z,16.30
2022-09-06T07:26:00.371Z,15.50
2022-09-06T07:28:30.737Z,15.50
2022-09-06T07:31:00.367Z,15.50
2022-09-06T07:33:30.569Z,15.50
2022-09-06T07:36:03.408Z,16.40
2022-09-06T07:38:31.991Z,16.40
2022-09-06T07:41:02.804Z,16.40
2022-09-06T07:43:31.648Z,16.40
2022-09-06T07:46:02.083Z,17.50
2022-09-06T07:48:32.310Z,17.50
2022-09-06T07:51:02.518Z,17.50
2022-09-06T07:53:31.404Z,17.50
2022-09-06T07:56:01.747Z,12.10
2022-09-06T07:58:30.601Z,12.10
2022-09-06T08:01:14.991Z,12.10
2022-09-06T08:03:30.537Z,12.10
2022-09-06T08:08:58.966Z,13.20
2022-09-06T08:11:00.582Z,13.20
2022-09-06T08:13:30.437Z,13.20
2022-09-06T08:16:02.846Z,11.20
2022-09-06T08:18:31.012Z,11.20
2022-09-06T08:21:12.172Z,11.20
2022-09-06T08:23:30.412Z,11.20
2022-09-06T08:26:00.707Z,11.40
2022-09-06T08:28:30.616Z,11.40
2022-09-06T08:31:09.453Z,11.40
2022-09-06T08:33:30.405Z,11.40
2022-09-06T08:36:00.984Z,11.90
2022-09-06T08:38:31.278Z,11.90
2022-09-06T08:41:08.136Z,11.90
2022-09-06T08:43:30.892Z,11.90
2022-09-06T08:46:00.483Z,13.10
2022-09-06T08:48:34.727Z,13.10
2022-09-06T08:51:18.073Z,13.10
2022-09-06T08:53:32.670Z,13.10
2022-09-06T08:58:47.141Z,11.70
2022-09-06T09:01:03.765Z,11.70
2022-09-06T09:03:33.126Z,11.70
2022-09-06T09:06:04.323Z,10.40
2022-09-06T09:08:39.864Z,10.40
2022-09-06T09:11:02.886Z,10.40
2022-09-06T09:13:35.312Z,10.40
2022-09-06T09:16:01.126Z,11.40
2022-09-06T09:18:34.247Z,11.40
2022-09-06T09:21:00.673Z,11.40
2022-09-06T09:23:31.209Z,11.40
2022-09-06T09:26:04.962Z,9.00
2022-09-06T09:28:31.009Z,9.00
2022-09-06T09:31:00.992Z,9.00
2022-09-06T09:33:33.105Z,9.00
2022-09-06T09:36:04.327Z,14.80
2022-09-06T09:38:34.443Z,14.80
2022-09-06T09:41:04.391Z,14.80
2022-09-06T09:43:33.963Z,14.80
2022-09-06T09:46:09.694Z,10.60
2022-09-06T09:48:30.460Z,10.60
2022-09-06T09:51:26.100Z,10.60
2022-09-06T09:53:30.534Z,10.60
2022-09-06T09:56:00.886Z,10.70
2022-09-06T09:58:34.752Z,10.70
2022-09-06T10:01:15.981Z,10.70
2022-09-06T10:03:31.271Z,10.70
2022-09-06T10:06:02.435Z,7.60
2022-09-06T10:08:32.892Z,7.60
2022-09-06T10:11:00.609Z,7.60
2022-09-06T10:13:30.633Z,7.60
2022-09-06T10:16:02.185Z,9.50
2022-09-06T10:18:33.035Z,9.50
2022-09-06T10:21:02.506Z,9.50
2022-09-06T10:26:04.822Z,7.70
2022-09-06T10:28:33.573Z,7.70
2022-09-06T10:31:11.941Z,7.70
2022-09-06T10:33:39.301Z,7.70
2022-09-06T10:36:02.821Z,8.20
2022-09-06T10:38:44.531Z,8.20
2022-09-06T10:41:16.392Z,8.20
2022-09-06T10:46:03.983Z,9.00
2022-09-06T10:48:32.681Z,9.00
2022-09-06T10:51:07.588Z,9.00
2022-09-06T10:53:37.957Z,9.00
2022-09-06T10:56:05.921Z,8.80
2022-09-06T11:01:01.424Z,8.80
2022-09-06T11:04:04.438Z,8.80
2022-09-06T11:06:06.182Z,8.60
2022-09-06T11:08:47.209Z,8.60
2022-09-06T11:11:07.264Z,8.60
2022-09-06T11:13:31.468Z,8.60
2022-09-06T11:16:06.455Z,10.40
2022-09-06T11:18:36.764Z,10.40
2022-09-06T11:23:47.356Z,10.40
2022-09-06T11:26:20.441Z,11.30
2022-09-06T11:28:37.199Z,11.30
2022-09-06T11:31:03.310Z,11.30
2022-09-06T11:33:34.472Z,11.30
2022-09-06T11:36:19.246Z,15.40
2022-09-06T11:38:30.675Z,15.40
2022-09-06T11:41:02.859Z,15.40
2022-09-06T11:43:42.268Z,15.40
2022-09-06T11:46:00.672Z,10.90
2022-09-06T11:48:35.486Z,10.90
2022-09-06T11:51:05.732Z,10.90
2022-09-06T11:53:34.121Z,10.90
2022-09-06T11:56:15.946Z,8.00
2022-09-06T11:58:37.545Z,8.00
2022-09-06T12:01:20.410Z,8.00
2022-09-06T12:04:07.771Z,8.00
2022-09-06T12:06:13.013Z,11.60
2022-09-06T12:08:33.594Z,11.60
2022-09-06T12:11:03.504Z,11.60
2022-09-06T12:13:34.088Z,11.60
2022-09-06T12:16:01.118Z,12.80
2022-09-06T12:18:50.376Z,12.80
2022-09-06T12:21:01.140Z,12.80
2022-09-06T12:23:41.050Z,12.80
2022-09-06T12:26:01.687Z,7.00
2022-09-06T12:28:42.666Z,7.00
2022-09-06T12:31:18.041Z,7.00
2022-09-06T12:33:32.586Z,7.00
2022-09-06T12:36:12.914Z,8.00
2022-09-06T12:38:30.826Z,8.00
2022-09-06T12:41:04.004Z,8.00
2022-09-06T12:43:36.180Z,8.00
2022-09-06T12:46:06.261Z,9.60
2022-09-06T12:48:34.248Z,9.60
2022-09-06T12:51:02.248Z,9.60
2022-09-06T12:53:33.310Z,9.60
2022-09-06T12:56:04.597Z,6.30
2022-09-06T12:58:31.106Z,6.30
2022-09-06T13:01:08.224Z,6.30
2022-09-06T13:03:36.647Z,6.30
2022-09-06T13:06:04.575Z,8.40
2022-09-06T13:08:36.797Z,8.40
2022-09-06T13:11:02.482Z,8.40
2022-09-06T13:13:30.833Z,8.40
2022-09-06T13:16:01.394Z,7.60
2022-09-06T13:18:32.696Z,7.60
2022-09-06T13:21:03.180Z,7.60
2022-09-06T13:23:40.104Z,7.60
2022-09-06T13:26:00.665Z,7.30
2022-09-06T13:28:32.660Z,7.30
2022-09-06T13:31:02.792Z,7.30
2022-09-06T13:33:31.934Z,7.30
2022-09-06T13:38:33.667Z,5.00
2022-09-06T13:41:14.625Z,5.00
2022-09-06T13:43:38.925Z,5.00
2022-09-06T13:46:05.443Z,7.50
2022-09-06T13:48:31.143Z,7.50
2022-09-06T13:51:04.075Z,7.50
2022-09-06T13:53:30.811Z,7.50
2022-09-06T13:56:01.685Z,6.80
2022-09-06T14:01:01.007Z,6.80
2022-09-06T14:03:31.833Z,6.80
2022-09-06T14:06:00.595Z,10.20
2022-09-06T14:08:43.834Z,10.20
2022-09-06T14:11:00.604Z,10.20
2022-09-06T14:13:30.643Z,10.20
2022-09-06T14:16:04.239Z,7.40
2022-09-06T14:18:31.153Z,7.40
2022-09-06T14:21:01.066Z,7.40
2022-09-06T14:23:30.904Z,7.40
2022-09-06T14:26:02.912Z,9.30
2022-09-06T14:28:32.697Z,9.30
2022-09-06T14:31:09.454Z,9.30
2022-09-06T14:36:05.010Z,7.40
2022-09-06T14:38:30.561Z,7.40
2022-09-06T14:41:01.762Z,7.40
2022-09-06T14:43:31.119Z,7.40
2022-09-06T14:46:02.344Z,7.80
2022-09-06T14:48:31.268Z,7.80
2022-09-06T14:51:07.672Z,7.80
2022-09-06T14:53:40.318Z,7.80
2022-09-06T14:56:02.183Z,8.50
2022-09-06T15:01:12.087Z,8.50
2022-09-06T15:03:30.633Z,8.50
2022-09-06T15:06:01.186Z,9.30
2022-09-06T15:08:31.102Z,9.30
2022-09-06T15:11:00.848Z,9.30
2022-09-06T15:13:31.209Z,9.30
2022-09-06T15:16:01.169Z,9.00
2022-09-06T15:21:07.998Z,9.00
2022-09-06T15:23:30.645Z,9.00
2022-09-06T15:26:00.782Z,6.90
2022-09-06T15:28:33.732Z,6.90
2022-09-06T15:31:00.623Z,6.90
2022-09-06T15:33:32.186Z,6.90
2022-09-06T15:36:05.168Z,8.10
2022-09-06T15:38:30.825Z,8.10
2022-09-06T15:41:08.125Z,8.10
2022-09-06T15:43:31.377Z,8.10
2022-09-06T15:46:01.201Z,10.30
2022-09-06T15:48:39.891Z,10.30
2022-09-06T15:51:02.010Z,10.30
2022-09-06T15:53:30.599Z,10.30
2022-09-06T15:56:01.821Z,7.70
2022-09-06T15:58:31.091Z,7.70
2022-09-06T16:01:04.385Z,7.70
2022-09-06T16:03:31.066Z,7.70
2022-09-06T16:06:29.215Z,8.80
2022-09-06T16:08:31.702Z,8.80
2022-09-06T16:11:06.642Z,8.80
2022-09-06T16:13:32.021Z,8.80
2022-09-06T16:16:03.088Z,9.20
2022-09-06T16:18:31.745Z,9.20
2022-09-06T16:21:04.685Z,9.20
2022-09-06T16:23:30.803Z,9.20
2022-09-06T16:26:01.057Z,8.80
2022-09-06T16:28:34.248Z,8.80
2022-09-06T16:31:01.806Z,8.80
2022-09-06T16:33:32.865Z,8.80
2022-09-06T16:36:01.906Z,6.90
2022-09-06T16:38:31.770Z,6.90
2022-09-06T16:41:08.822Z,6.90
2022-09-06T16:43:32.569Z,6.90
2022-09-06T16:46:03.193Z,5.40
2022-09-06T16:48:31.032Z,5.40
2022-09-06T16:51:12.207Z,5.40
2022-09-06T16:53:30.657Z,5.40
2022-09-06T16:56:01.297Z,6.90
2022-09-06T16:58:30.821Z,6.90
2022-09-06T17:01:00.943Z,6.90
2022-09-06T17:03:30.867Z,6.90
2022-09-06T17:06:01.459Z,9.60
2022-09-06T17:08:32.045Z,9.60
2022-09-06T17:11:01.469Z,9.60
2022-09-06T17:13:32.038Z,9.60
2022-09-06T17:16:11.596Z,11.70
2022-09-06T17:18:32.434Z,11.70
2022-09-06T17:21:03.616Z,11.70
2022-09-06T17:23:31.384Z,11.70
2022-09-06T17:26:01.956Z,17.90
2022-09-06T17:28:31.951Z,17.90
2022-09-06T17:31:02.744Z,17.90
2022-09-06T17:33:31.078Z,17.90
2022-09-06T17:36:06.398Z,20.50
2022-09-06T17:38:30.748Z,20.50
2022-09-06T17:41:01.381Z,20.50
2022-09-06T17:43:31.476Z,20.50
2022-09-06T17:46:02.769Z,20.70
2022-09-06T17:48:30.879Z,20.70
2022-09-06T17:51:04.247Z,20.70
2022-09-06T17:53:30.901Z,20.70
2022-09-06T17:56:02.778Z,28.50
2022-09-06T17:58:31.645Z,28.50
2022-09-06T18:01:02.549Z,28.50
2022-09-06T18:03:31.586Z,28.50
2022-09-06T18:06:03.389Z,26.10
2022-09-06T18:08:30.898Z,26.10
2022-09-06T18:11:06.934Z,26.10
2022-09-06T18:13:30.974Z,26.10
2022-09-06T18:16:02.566Z,28.20
2022-09-06T18:18:32.240Z,28.20
2022-09-06T18:21:01.564Z,28.20
2022-09-06T18:23:31.274Z,28.20
2022-09-06T18:26:03.131Z,24.30
2022-09-06T18:28:32.702Z,24.30
2022-09-06T18:31:04.704Z,24.30
2022-09-06T18:33:30.748Z,24.30
2022-09-06T18:36:00.999Z,24.00
2022-09-06T18:38:30.826Z,24.00
2022-09-06T18:41:03.412Z,24.00
2022-09-06T18:43:33.466Z,24.00
2022-09-06T18:46:02.138Z,23.50
2022-09-06T18:48:31.930Z,23.50
2022-09-06T18:51:02.766Z,23.50
2022-09-06T18:53:31.108Z,23.50
2022-09-06T18:56:01.356Z,20.20
2022-09-06T18:58:31.288Z,20.20
2022-09-06T19:01:01.612Z,20.20
2022-09-06T19:03:32.054Z,20.20
2022-09-06T19:06:01.274Z,18.60
2022-09-06T19:08:30.997Z,18.60
2022-09-06T19:11:02.533Z,18.60
2022-09-06T19:13:31.631Z,18.60
2022-09-06T19:16:01.645Z,25.60
2022-09-06T19:18:32.353Z,25.60
2022-09-06T19:21:04.083Z,25.60
2022-09-06T19:23:34.031Z,25.60
2022-09-06T19:26:03.471Z,23.50
2022-09-06T19:28:31.860Z,23.50
2022-09-06T19:36:11.474Z,27.20
2022-09-06T19:38:47.196Z,27.20
2022-09-06T19:41:02.267Z,27.20
2022-09-06T19:43:31.556Z,27.20
2022-09-06T19:46:02.802Z,21.40
2022-09-06T19:48:31.878Z,21.40
2022-09-06T19:51:01.443Z,21.40
2022-09-06T19:53:31.220Z,21.40
2022-09-06T19:56:08.416Z,20.20
2022-09-06T19:58:30.797Z,20.20
2022-09-06T20:01:00.974Z,20.20
2022-09-06T20:03:30.875Z,20.20
2022-09-06T20:06:01.887Z,17.60
2022-09-06T20:08:30.908Z,17.60
2022-09-06T20:11:02.856Z,17.60
2022-09-06T20:13:33.239Z,17.60
2022-09-06T20:16:02.126Z,15.80
2022-09-06T20:18:31.270Z,15.80
2022-09-06T20:21:01.375Z,15.80
2022-09-06T20:23:33.356Z,15.80
2022-09-06T20:26:05.443Z,16.30
2022-09-06T20:28:32.408Z,16.30
2022-09-06T20:31:03.065Z,16.30
2022-09-06T20:33:31.892Z,16.30
2022-09-06T20:36:02.679Z,14.30
2022-09-06T20:38:32.893Z,14.30
2022-09-06T20:41:03.604Z,14.30
2022-09-06T20:43:35.648Z,14.30
2022-09-06T20:46:03.341Z,21.60
2022-09-06T20:48:31.698Z,21.60
2022-09-06T20:51:04.045Z,21.60
2022-09-06T20:56:03.455Z,25.10
2022-09-06T20:58:32.043Z,25.10
2022-09-06T21:01:06.089Z,25.10
2022-09-06T21:03:30.802Z,25.10
2022-09-06T21:06:02.051Z,17.00
2022-09-06T21:08:34.532Z,17.00
2022-09-06T21:11:02.995Z,17.00
2022-09-06T21:13:32.580Z,17.00
2022-09-06T21:16:02.304Z,17.10
2022-09-06T21:18:32.403Z,17.10
2022-09-06T21:21:04.461Z,17.10
2022-09-06T21:23:33.911Z,17.10
2022-09-06T21:26:03.512Z,17.30
2022-09-06T21:28:32.734Z,17.30
2022-09-06T21:31:02.862Z,17.30
2022-09-06T21:33:32.066Z,17.30
2022-09-06T21:36:05.735Z,20.90
2022-09-06T21:38:31.832Z,20.90
2022-09-06T21:41:00.971Z,20.90
2022-09-06T21:43:31.780Z,20.90
2022-09-06T21:46:01.598Z,21.40
2022-09-06T21:48:31.415Z,21.40
2022-09-06T21:51:01.162Z,21.40
2022-09-06T21:53:30.948Z,21.40
2022-09-06T21:56:02.459Z,24.30
2022-09-06T21:58:31.820Z,24.30
2022-09-06T22:03:33.052Z,24.30
2022-09-06T22:06:08.313Z,23.40
2022-09-06T22:08:31.019Z,23.40
2022-09-06T22:11:06.770Z,23.40
2022-09-06T22:13:30.900Z,23.40
2022-09-06T22:16:05.637Z,19.40
2022-09-06T22:18:31.775Z,19.40
2022-09-06T22:21:01.572Z,19.40
2022-09-06T22:23:31.571Z,19.40
2022-09-06T22:26:03.055Z,17.70
2022-09-06T22:31:01.760Z,17.70
2022-09-06T22:33:31.165Z,17.70
2022-09-06T22:36:01.703Z,24.80
2022-09-06T22:38:32.347Z,24.80
2022-09-06T22:41:01.215Z,24.80
2022-09-06T22:46:02.052Z,25.00
2022-09-06T22:53:31.736Z,25.00
2022-09-06T22:56:02.111Z,28.90
2022-09-06T22:58:32.629Z,28.90
2022-09-06T23:01:06.815Z,28.90
2022-09-06T23:06:01.652Z,31.50
2022-09-06T23:08:32.819Z,31.50
2022-09-06T23:11:04.482Z,31.50
2022-09-06T23:13:30.871Z,31.50
2022-09-06T23:16:03.039Z,29.60
2022-09-06T23:21:04.190Z,29.60
2022-09-06T23:23:30.840Z,29.60
2022-09-06T23:26:03.732Z,31.60
2022-09-06T23:28:31.454Z,31.60
2022-09-06T23:31:01.766Z,31.60
2022-09-06T23:33:34.209Z,31.60
2022-09-06T23:36:01.037Z,33.10
2022-09-06T23:38:31.841Z,33.10
2022-09-06T23:41:01.606Z,33.10
2022-09-06T23:43:31.283Z,33.10
2022-09-06T23:46:01.299Z,33.60
2022-09-06T23:48:31.184Z,33.60
2022-09-06T23:51:01.309Z,33.60
2022-09-06T23:53:31.366Z,33.60
2022-09-06T23:56:01.363Z,28.80
2022-09-06T23:58:31.281Z,28.80
